sensor_id;sensor_type;location;lat;lon;timestamp;P1;durP1;ratioP1;P2;durP2;ratioP2
21848;SDS011;11089;49.852;19.700;2022-08-19T00:01:34;15.82;;;10.68;;
21848;SDS011;11089;49.852;19.700;2022-08-19T00:04:37;12.30;;;9.93;;
21848;SDS011;11089;49.852;19.700;2022-08-19T00:07:38;17.10;;;10.57;;
21848;SDS011;11089;49.852;19.700;2022-08-19T00:10:39;13.70;;;10.27;;
21848;SDS011;11089;49.852;19.700;2022-08-19T00:13:40;11.77;;;9.45;;
21848;SDS011;11089;49.852;19.700;2022-08-19T00:16:41;14.27;;;9.98;;
21848;SDS011;11089;49.852;19.700;2022-08-19T00:19:43;15.05;;;10.48;;
21848;SDS011;11089;49.852;19.700;2022-08-19T00:22:44;13.98;;;10.50;;
21848;SDS011;11089;49.852;19.700;2022-08-19T00:25:45;13.38;;;10.82;;
21848;SDS011;11089;49.852;19.700;2022-08-19T00:28:46;14.63;;;9.88;;
21848;SDS011;11089;49.852;19.700;2022-08-19T00:31:47;14.65;;;9.85;;
21848;SDS011;11089;49.852;19.700;2022-08-19T00:34:50;12.98;;;9.73;;
21848;SDS011;11089;49.852;19.700;2022-08-19T00:37:53;14.63;;;9.60;;
21848;SDS011;11089;49.852;19.700;2022-08-19T00:40:54;15.05;;;10.50;;
21848;SDS011;11089;49.852;19.700;2022-08-19T00:43:56;14.20;;;10.07;;
21848;SDS011;11089;49.852;19.700;2022-08-19T00:46:58;12.75;;;9.80;;
21848;SDS011;11089;49.852;19.700;2022-08-19T00:49:59;14.00;;;10.75;;
21848;SDS011;11089;49.852;19.700;2022-08-19T00:53:00;13.15;;;10.18;;
21848;SDS011;11089;49.852;19.700;2022-08-19T00:56:04;15.45;;;10.15;;
21848;SDS011;11089;49.852;19.700;2022-08-19T00:59:06;14.57;;;10.45;;
21848;SDS011;11089;49.852;19.700;2022-08-19T01:02:09;14.52;;;9.82;;
21848;SDS011;11089;49.852;19.700;2022-08-19T01:05:14;13.25;;;10.45;;
21848;SDS011;11089;49.852;19.700;2022-08-19T01:08:24;13.07;;;10.40;;
21848;SDS011;11089;49.852;19.700;2022-08-19T01:11:26;14.05;;;9.32;;
21848;SDS011;11089;49.852;19.700;2022-08-19T01:14:30;11.93;;;9.38;;
21848;SDS011;11089;49.852;19.700;2022-08-19T01:17:31;13.90;;;9.98;;
21848;SDS011;11089;49.852;19.700;2022-08-19T01:20:33;13.95;;;9.90;;
21848;SDS011;11089;49.852;19.700;2022-08-19T01:23:34;10.98;;;8.77;;
21848;SDS011;11089;49.852;19.700;2022-08-19T01:26:44;14.38;;;9.93;;
21848;SDS011;11089;49.852;19.700;2022-08-19T01:29:45;15.23;;;10.23;;
21848;SDS011;11089;49.852;19.700;2022-08-19T01:32:46;11.93;;;9.82;;
21848;SDS011;11089;49.852;19.700;2022-08-19T01:35:47;16.17;;;10.15;;
21848;SDS011;11089;49.852;19.700;2022-08-19T01:38:51;11.13;;;9.00;;
21848;SDS011;11089;49.852;19.700;2022-08-19T01:41:52;17.58;;;10.02;;
21848;SDS011;11089;49.852;19.700;2022-08-19T01:44:55;15.52;;;9.73;;
21848;SDS011;11089;49.852;19.700;2022-08-19T01:47:56;14.05;;;9.20;;
21848;SDS011;11089;49.852;19.700;2022-08-19T01:50:58;10.82;;;9.18;;
21848;SDS011;11089;49.852;19.700;2022-08-19T01:53:59;15.13;;;10.10;;
21848;SDS011;11089;49.852;19.700;2022-08-19T01:57:07;13.25;;;9.57;;
21848;SDS011;11089;49.852;19.700;2022-08-19T02:00:11;15.30;;;9.90;;
21848;SDS011;11089;49.852;19.700;2022-08-19T02:03:15;13.40;;;9.13;;
21848;SDS011;11089;49.852;19.700;2022-08-19T02:06:17;14.25;;;9.50;;
21848;SDS011;11089;49.852;19.700;2022-08-19T02:09:17;14.55;;;9.77;;
21848;SDS011;11089;49.852;19.700;2022-08-19T02:12:18;13.75;;;9.73;;
21848;SDS011;11089;49.852;19.700;2022-08-19T02:15:20;15.60;;;9.82;;
21848;SDS011;11089;49.852;19.700;2022-08-19T02:18:22;11.98;;;9.88;;
21848;SDS011;11089;49.852;19.700;2022-08-19T02:21:23;13.27;;;9.75;;
21848;SDS011;11089;49.852;19.700;2022-08-19T02:24:24;12.77;;;9.98;;
21848;SDS011;11089;49.852;19.700;2022-08-19T02:27:25;11.80;;;9.30;;
21848;SDS011;11089;49.852;19.700;2022-08-19T02:30:26;12.50;;;9.52;;
21848;SDS011;11089;49.852;19.700;2022-08-19T02:33:27;12.85;;;9.38;;
21848;SDS011;11089;49.852;19.700;2022-08-19T02:36:28;16.58;;;9.50;;
21848;SDS011;11089;49.852;19.700;2022-08-19T02:39:30;15.07;;;9.40;;
21848;SDS011;11089;49.852;19.700;2022-08-19T02:42:31;14.85;;;10.18;;
21848;SDS011;11089;49.852;19.700;2022-08-19T02:45:32;15.13;;;9.50;;
21848;SDS011;11089;49.852;19.700;2022-08-19T02:48:34;12.10;;;9.20;;
21848;SDS011;11089;49.852;19.700;2022-08-19T02:51:37;13.00;;;9.57;;
21848;SDS011;11089;49.852;19.700;2022-08-19T02:54:40;12.35;;;9.50;;
21848;SDS011;11089;49.852;19.700;2022-08-19T02:57:41;15.05;;;9.35;;
21848;SDS011;11089;49.852;19.700;2022-08-19T03:00:43;14.02;;;9.55;;
21848;SDS011;11089;49.852;19.700;2022-08-19T03:03:49;13.27;;;9.63;;
21848;SDS011;11089;49.852;19.700;2022-08-19T03:06:51;12.40;;;9.63;;
21848;SDS011;11089;49.852;19.700;2022-08-19T03:09:52;14.77;;;10.23;;
21848;SDS011;11089;49.852;19.700;2022-08-19T03:12:52;19.13;;;10.48;;
21848;SDS011;11089;49.852;19.700;2022-08-19T03:15:53;15.00;;;10.00;;
21848;SDS011;11089;49.852;19.700;2022-08-19T03:18:55;12.95;;;9.85;;
21848;SDS011;11089;49.852;19.700;2022-08-19T03:22:00;14.75;;;9.88;;
21848;SDS011;11089;49.852;19.700;2022-08-19T03:25:00;12.88;;;9.93;;
21848;SDS011;11089;49.852;19.700;2022-08-19T03:28:02;12.52;;;9.73;;
21848;SDS011;11089;49.852;19.700;2022-08-19T03:31:04;16.95;;;10.38;;
21848;SDS011;11089;49.852;19.700;2022-08-19T03:34:13;15.27;;;9.85;;
21848;SDS011;11089;49.852;19.700;2022-08-19T03:37:19;15.43;;;10.05;;
21848;SDS011;11089;49.852;19.700;2022-08-19T03:40:20;14.55;;;10.25;;
21848;SDS011;11089;49.852;19.700;2022-08-19T03:43:21;13.50;;;10.15;;
21848;SDS011;11089;49.852;19.700;2022-08-19T03:46:24;17.10;;;11.20;;
21848;SDS011;11089;49.852;19.700;2022-08-19T03:49:27;13.20;;;11.05;;
21848;SDS011;11089;49.852;19.700;2022-08-19T03:52:30;14.80;;;10.93;;
21848;SDS011;11089;49.852;19.700;2022-08-19T03:55:30;15.05;;;10.80;;
21848;SDS011;11089;49.852;19.700;2022-08-19T03:58:31;13.70;;;10.18;;
21848;SDS011;11089;49.852;19.700;2022-08-19T04:01:34;14.65;;;11.07;;
21848;SDS011;11089;49.852;19.700;2022-08-19T04:04:36;14.73;;;10.07;;
21848;SDS011;11089;49.852;19.700;2022-08-19T04:07:38;14.55;;;11.30;;
21848;SDS011;11089;49.852;19.700;2022-08-19T04:10:39;14.95;;;10.85;;
21848;SDS011;11089;49.852;19.700;2022-08-19T04:13:42;16.00;;;11.43;;
21848;SDS011;11089;49.852;19.700;2022-08-19T04:16:46;15.85;;;11.52;;
21848;SDS011;11089;49.852;19.700;2022-08-19T04:19:48;16.38;;;10.85;;
21848;SDS011;11089;49.852;19.700;2022-08-19T04:22:49;13.48;;;10.52;;
21848;SDS011;11089;49.852;19.700;2022-08-19T04:25:50;14.30;;;11.23;;
21848;SDS011;11089;49.852;19.700;2022-08-19T04:28:51;17.30;;;12.00;;
21848;SDS011;11089;49.852;19.700;2022-08-19T04:31:54;18.92;;;11.50;;
21848;SDS011;11089;49.852;19.700;2022-08-19T04:34:56;14.60;;;10.95;;
21848;SDS011;11089;49.852;19.700;2022-08-19T04:37:58;17.23;;;11.20;;
21848;SDS011;11089;49.852;19.700;2022-08-19T04:40:59;15.13;;;11.35;;
21848;SDS011;11089;49.852;19.700;2022-08-19T04:44:16;15.45;;;11.43;;
21848;SDS011;11089;49.852;19.700;2022-08-19T04:47:18;15.70;;;11.45;;
21848;SDS011;11089;49.852;19.700;2022-08-19T04:50:18;18.05;;;11.35;;
21848;SDS011;11089;49.852;19.700;2022-08-19T04:53:19;15.57;;;11.95;;
21848;SDS011;11089;49.852;19.700;2022-08-19T04:56:20;17.15;;;11.48;;
21848;SDS011;11089;49.852;19.700;2022-08-19T04:59:22;16.48;;;12.07;;
21848;SDS011;11089;49.852;19.700;2022-08-19T05:02:23;19.23;;;12.38;;
21848;SDS011;11089;49.852;19.700;2022-08-19T05:05:24;16.42;;;11.73;;
21848;SDS011;11089;49.852;19.700;2022-08-19T05:08:25;20.75;;;11.27;;
21848;SDS011;11089;49.852;19.700;2022-08-19T05:11:27;16.08;;;11.75;;
21848;SDS011;11089;49.852;19.700;2022-08-19T05:14:30;17.27;;;11.88;;
21848;SDS011;11089;49.852;19.700;2022-08-19T05:17:31;15.35;;;11.07;;
21848;SDS011;11089;49.852;19.700;2022-08-19T05:20:32;14.68;;;11.43;;
21848;SDS011;11089;49.852;19.700;2022-08-19T05:23:47;15.18;;;10.85;;
21848;SDS011;11089;49.852;19.700;2022-08-19T05:26:50;17.33;;;11.57;;
21848;SDS011;11089;49.852;19.700;2022-08-19T05:29:52;15.48;;;11.20;;
21848;SDS011;11089;49.852;19.700;2022-08-19T05:32:52;16.33;;;10.82;;
21848;SDS011;11089;49.852;19.700;2022-08-19T05:35:55;13.98;;;10.60;;
21848;SDS011;11089;49.852;19.700;2022-08-19T05:38:56;20.35;;;14.18;;
21848;SDS011;11089;49.852;19.700;2022-08-19T05:42:01;17.90;;;13.23;;
21848;SDS011;11089;49.852;19.700;2022-08-19T05:45:06;18.92;;;12.30;;
21848;SDS011;11089;49.852;19.700;2022-08-19T05:48:09;15.00;;;11.25;;
21848;SDS011;11089;49.852;19.700;2022-08-19T05:51:13;16.65;;;11.75;;
21848;SDS011;11089;49.852;19.700;2022-08-19T05:54:16;15.07;;;11.23;;
21848;SDS011;11089;49.852;19.700;2022-08-19T05:57:18;19.65;;;11.85;;
21848;SDS011;11089;49.852;19.700;2022-08-19T06:00:19;17.50;;;11.55;;
21848;SDS011;11089;49.852;19.700;2022-08-19T06:03:20;15.80;;;12.32;;
21848;SDS011;11089;49.852;19.700;2022-08-19T06:06:21;16.35;;;11.05;;
21848;SDS011;11089;49.852;19.700;2022-08-19T06:09:22;14.95;;;12.32;;
21848;SDS011;11089;49.852;19.700;2022-08-19T06:12:24;16.10;;;11.48;;
21848;SDS011;11089;49.852;19.700;2022-08-19T06:15:28;17.35;;;11.95;;
21848;SDS011;11089;49.852;19.700;2022-08-19T06:18:29;17.15;;;12.25;;
21848;SDS011;11089;49.852;19.700;2022-08-19T06:21:30;15.65;;;11.18;;
21848;SDS011;11089;49.852;19.700;2022-08-19T06:24:31;18.77;;;11.35;;
21848;SDS011;11089;49.852;19.700;2022-08-19T06:27:32;15.55;;;11.95;;
21848;SDS011;11089;49.852;19.700;2022-08-19T06:30:33;18.38;;;11.20;;
21848;SDS011;11089;49.852;19.700;2022-08-19T06:33:40;13.45;;;10.70;;
21848;SDS011;11089;49.852;19.700;2022-08-19T06:36:48;14.85;;;10.85;;
21848;SDS011;11089;49.852;19.700;2022-08-19T06:39:51;16.83;;;11.57;;
21848;SDS011;11089;49.852;19.700;2022-08-19T06:42:52;18.33;;;11.98;;
21848;SDS011;11089;49.852;19.700;2022-08-19T06:45:53;16.02;;;11.60;;
21848;SDS011;11089;49.852;19.700;2022-08-19T06:48:54;15.85;;;11.40;;
21848;SDS011;11089;49.852;19.700;2022-08-19T06:51:55;17.20;;;12.27;;
21848;SDS011;11089;49.852;19.700;2022-08-19T06:54:57;16.00;;;12.38;;
21848;SDS011;11089;49.852;19.700;2022-08-19T06:57:58;17.15;;;11.98;;
21848;SDS011;11089;49.852;19.700;2022-08-19T07:01:03;17.02;;;12.65;;
21848;SDS011;11089;49.852;19.700;2022-08-19T07:04:08;19.23;;;12.65;;
21848;SDS011;11089;49.852;19.700;2022-08-19T07:07:10;17.45;;;12.02;;
21848;SDS011;11089;49.852;19.700;2022-08-19T07:10:12;16.27;;;12.00;;
21848;SDS011;11089;49.852;19.700;2022-08-19T07:13:14;16.15;;;12.10;;
21848;SDS011;11089;49.852;19.700;2022-08-19T07:16:16;15.90;;;12.23;;
21848;SDS011;11089;49.852;19.700;2022-08-19T07:19:22;14.88;;;11.35;;
21848;SDS011;11089;49.852;19.700;2022-08-19T07:22:26;16.02;;;11.63;;
21848;SDS011;11089;49.852;19.700;2022-08-19T07:25:26;16.75;;;11.68;;
21848;SDS011;11089;49.852;19.700;2022-08-19T07:28:28;14.73;;;11.20;;
21848;SDS011;11089;49.852;19.700;2022-08-19T07:31:29;14.57;;;11.80;;
21848;SDS011;11089;49.852;19.700;2022-08-19T07:34:30;16.65;;;11.77;;
21848;SDS011;11089;49.852;19.700;2022-08-19T07:37:34;16.20;;;11.90;;
21848;SDS011;11089;49.852;19.700;2022-08-19T07:40:37;16.95;;;12.27;;
21848;SDS011;11089;49.852;19.700;2022-08-19T07:43:38;15.13;;;11.98;;
21848;SDS011;11089;49.852;19.700;2022-08-19T07:46:41;15.95;;;11.85;;
21848;SDS011;11089;49.852;19.700;2022-08-19T07:49:45;15.57;;;11.15;;
21848;SDS011;11089;49.852;19.700;2022-08-19T07:52:47;16.55;;;11.85;;
21848;SDS011;11089;49.852;19.700;2022-08-19T07:55:51;13.90;;;11.18;;
21848;SDS011;11089;49.852;19.700;2022-08-19T07:59:04;13.98;;;10.85;;
21848;SDS011;11089;49.852;19.700;2022-08-19T08:02:05;14.32;;;10.88;;
21848;SDS011;11089;49.852;19.700;2022-08-19T08:05:08;15.57;;;11.52;;
21848;SDS011;11089;49.852;19.700;2022-08-19T08:08:23;17.00;;;12.65;;
21848;SDS011;11089;49.852;19.700;2022-08-19T08:11:39;12.77;;;11.05;;
21848;SDS011;11089;49.852;19.700;2022-08-19T08:14:43;14.30;;;10.88;;
21848;SDS011;11089;49.852;19.700;2022-08-19T08:17:49;15.07;;;10.82;;
21848;SDS011;11089;49.852;19.700;2022-08-19T08:20:50;13.55;;;10.90;;
21848;SDS011;11089;49.852;19.700;2022-08-19T08:23:51;13.02;;;10.60;;
21848;SDS011;11089;49.852;19.700;2022-08-19T08:26:58;14.88;;;10.50;;
21848;SDS011;11089;49.852;19.700;2022-08-19T08:30:03;16.23;;;10.52;;
21848;SDS011;11089;49.852;19.700;2022-08-19T08:33:13;12.20;;;9.75;;
21848;SDS011;11089;49.852;19.700;2022-08-19T08:36:29;13.35;;;9.85;;
21848;SDS011;11089;49.852;19.700;2022-08-19T08:39:33;12.40;;;10.27;;
21848;SDS011;11089;49.852;19.700;2022-08-19T08:42:35;10.73;;;8.80;;
21848;SDS011;11089;49.852;19.700;2022-08-19T08:45:47;11.40;;;8.38;;
21848;SDS011;11089;49.852;19.700;2022-08-19T08:48:56;19.35;;;9.90;;
21848;SDS011;11089;49.852;19.700;2022-08-19T08:52:07;9.45;;;8.27;;
21848;SDS011;11089;49.852;19.700;2022-08-19T08:55:16;8.48;;;7.10;;
21848;SDS011;11089;49.852;19.700;2022-08-19T08:58:29;10.65;;;7.38;;
21848;SDS011;11089;49.852;19.700;2022-08-19T09:01:41;9.80;;;7.85;;
21848;SDS011;11089;49.852;19.700;2022-08-19T09:04:43;9.88;;;7.88;;
21848;SDS011;11089;49.852;19.700;2022-08-19T09:07:48;10.48;;;7.75;;
21848;SDS011;11089;49.852;19.700;2022-08-19T09:10:56;9.95;;;7.50;;
21848;SDS011;11089;49.852;19.700;2022-08-19T09:17:14;10.00;;;7.22;;
21848;SDS011;11089;49.852;19.700;2022-08-19T09:20:18;10.45;;;8.50;;
21848;SDS011;11089;49.852;19.700;2022-08-19T09:23:26;9.43;;;7.70;;
21848;SDS011;11089;49.852;19.700;2022-08-19T09:26:27;9.45;;;7.40;;
21848;SDS011;11089;49.852;19.700;2022-08-19T09:29:29;8.45;;;7.22;;
21848;SDS011;11089;49.852;19.700;2022-08-19T09:32:30;11.43;;;8.27;;
21848;SDS011;11089;49.852;19.700;2022-08-19T09:35:31;11.43;;;7.78;;
21848;SDS011;11089;49.852;19.700;2022-08-19T09:38:32;18.15;;;8.45;;
21848;SDS011;11089;49.852;19.700;2022-08-19T09:41:34;10.43;;;7.82;;
21848;SDS011;11089;49.852;19.700;2022-08-19T09:44:35;10.65;;;8.50;;
21848;SDS011;11089;49.852;19.700;2022-08-19T09:47:36;9.98;;;7.13;;
21848;SDS011;11089;49.852;19.700;2022-08-19T09:50:38;14.88;;;10.10;;
21848;SDS011;11089;49.852;19.700;2022-08-19T09:53:39;9.35;;;8.20;;
21848;SDS011;11089;49.852;19.700;2022-08-19T09:56:40;14.40;;;9.85;;
21848;SDS011;11089;49.852;19.700;2022-08-19T09:59:41;14.88;;;9.55;;
21848;SDS011;11089;49.852;19.700;2022-08-19T10:02:42;16.52;;;13.30;;
21848;SDS011;11089;49.852;19.700;2022-08-19T10:05:43;13.25;;;9.00;;
21848;SDS011;11089;49.852;19.700;2022-08-19T10:08:52;10.77;;;8.93;;
21848;SDS011;11089;49.852;19.700;2022-08-19T10:11:53;12.57;;;9.95;;
21848;SDS011;11089;49.852;19.700;2022-08-19T10:14:54;12.05;;;9.35;;
21848;SDS011;11089;49.852;19.700;2022-08-19T10:17:56;15.93;;;9.88;;
21848;SDS011;11089;49.852;19.700;2022-08-19T10:21:09;11.93;;;8.52;;
21848;SDS011;11089;49.852;19.700;2022-08-19T10:24:16;9.43;;;7.97;;
21848;SDS011;11089;49.852;19.700;2022-08-19T10:27:17;10.55;;;7.35;;
21848;SDS011;11089;49.852;19.700;2022-08-19T10:30:18;11.98;;;7.65;;
21848;SDS011;11089;49.852;19.700;2022-08-19T10:33:19;10.35;;;7.68;;
21848;SDS011;11089;49.852;19.700;2022-08-19T10:36:21;14.35;;;7.75;;
21848;SDS011;11089;49.852;19.700;2022-08-19T10:39:29;10.57;;;8.07;;
21848;SDS011;11089;49.852;19.700;2022-08-19T10:42:31;9.43;;;7.40;;
21848;SDS011;11089;49.852;19.700;2022-08-19T10:45:32;14.10;;;8.27;;
21848;SDS011;11089;49.852;19.700;2022-08-19T10:48:33;7.57;;;6.50;;
21848;SDS011;11089;49.852;19.700;2022-08-19T10:51:34;9.30;;;7.60;;
21848;SDS011;11089;49.852;19.700;2022-08-19T10:54:50;8.93;;;7.18;;
21848;SDS011;11089;49.852;19.700;2022-08-19T10:58:16;11.00;;;6.78;;
21848;SDS011;11089;49.852;19.700;2022-08-19T11:01:24;8.95;;;7.30;;
21848;SDS011;11089;49.852;19.700;2022-08-19T11:04:26;10.68;;;7.93;;
21848;SDS011;11089;49.852;19.700;2022-08-19T11:07:26;10.88;;;7.32;;
21848;SDS011;11089;49.852;19.700;2022-08-19T11:10:27;12.27;;;6.93;;
21848;SDS011;11089;49.852;19.700;2022-08-19T11:13:29;8.43;;;6.88;;
21848;SDS011;11089;49.852;19.700;2022-08-19T11:16:31;12.18;;;7.47;;
21848;SDS011;11089;49.852;19.700;2022-08-19T11:19:32;8.77;;;6.85;;
21848;SDS011;11089;49.852;19.700;2022-08-19T11:22:34;9.80;;;7.10;;
21848;SDS011;11089;49.852;19.700;2022-08-19T11:25:37;9.50;;;6.75;;
21848;SDS011;11089;49.852;19.700;2022-08-19T11:28:39;10.63;;;6.63;;
21848;SDS011;11089;49.852;19.700;2022-08-19T11:31:41;7.43;;;6.45;;
21848;SDS011;11089;49.852;19.700;2022-08-19T11:34:44;9.15;;;6.68;;
21848;SDS011;11089;49.852;19.700;2022-08-19T11:37:45;7.57;;;6.85;;
21848;SDS011;11089;49.852;19.700;2022-08-19T11:40:53;9.50;;;6.72;;
21848;SDS011;11089;49.852;19.700;2022-08-19T11:43:55;8.18;;;6.40;;
21848;SDS011;11089;49.852;19.700;2022-08-19T11:46:56;10.63;;;7.18;;
21848;SDS011;11089;49.852;19.700;2022-08-19T11:49:57;12.00;;;7.07;;
21848;SDS011;11089;49.852;19.700;2022-08-19T11:52:59;9.05;;;6.97;;
21848;SDS011;11089;49.852;19.700;2022-08-19T11:56:00;7.22;;;6.07;;
21848;SDS011;11089;49.852;19.700;2022-08-19T11:59:01;8.60;;;6.85;;
21848;SDS011;11089;49.852;19.700;2022-08-19T12:02:03;9.95;;;6.72;;
21848;SDS011;11089;49.852;19.700;2022-08-19T12:05:04;9.75;;;6.78;;
21848;SDS011;11089;49.852;19.700;2022-08-19T12:08:05;8.25;;;6.70;;
21848;SDS011;11089;49.852;19.700;2022-08-19T12:11:06;10.90;;;7.05;;
21848;SDS011;11089;49.852;19.700;2022-08-19T12:14:11;10.77;;;6.55;;
21848;SDS011;11089;49.852;19.700;2022-08-19T12:17:14;10.32;;;6.82;;
21848;SDS011;11089;49.852;19.700;2022-08-19T12:20:15;8.38;;;6.40;;
21848;SDS011;11089;49.852;19.700;2022-08-19T12:23:17;12.05;;;6.60;;
21848;SDS011;11089;49.852;19.700;2022-08-19T12:26:18;10.18;;;6.43;;
21848;SDS011;11089;49.852;19.700;2022-08-19T12:29:21;8.23;;;6.03;;
21848;SDS011;11089;49.852;19.700;2022-08-19T12:32:24;12.20;;;6.75;;
21848;SDS011;11089;49.852;19.700;2022-08-19T12:35:26;9.13;;;6.72;;
21848;SDS011;11089;49.852;19.700;2022-08-19T12:38:27;15.63;;;6.38;;
21848;SDS011;11089;49.852;19.700;2022-08-19T12:41:28;10.48;;;6.53;;
21848;SDS011;11089;49.852;19.700;2022-08-19T12:44:32;10.88;;;7.28;;
21848;SDS011;11089;49.852;19.700;2022-08-19T12:47:36;10.93;;;6.18;;
21848;SDS011;11089;49.852;19.700;2022-08-19T12:50:41;10.80;;;7.00;;
21848;SDS011;11089;49.852;19.700;2022-08-19T12:53:43;9.13;;;6.30;;
21848;SDS011;11089;49.852;19.700;2022-08-19T12:56:44;7.55;;;6.28;;
21848;SDS011;11089;49.852;19.700;2022-08-19T12:59:45;12.32;;;6.68;;
21848;SDS011;11089;49.852;19.700;2022-08-19T13:02:46;8.40;;;6.63;;
21848;SDS011;11089;49.852;19.700;2022-08-19T13:05:59;9.43;;;6.78;;
21848;SDS011;11089;49.852;19.700;2022-08-19T13:10:12;16.52;;;7.25;;
21848;SDS011;11089;49.852;19.700;2022-08-19T13:13:50;9.35;;;7.40;;
21848;SDS011;11089;49.852;19.700;2022-08-19T13:17:39;8.18;;;6.90;;
21848;SDS011;11089;49.852;19.700;2022-08-19T13:21:25;9.13;;;6.53;;
21848;SDS011;11089;49.852;19.700;2022-08-19T13:24:28;10.63;;;6.88;;
21848;SDS011;11089;49.852;19.700;2022-08-19T13:27:34;8.40;;;6.60;;
21848;SDS011;11089;49.852;19.700;2022-08-19T13:31:13;9.73;;;7.10;;
21848;SDS011;11089;49.852;19.700;2022-08-19T13:43:15;12.48;;;7.40;;
21848;SDS011;11089;49.852;19.700;2022-08-19T13:51:32;12.75;;;7.28;;
21848;SDS011;11089;49.852;19.700;2022-08-19T14:03:26;12.15;;;6.97;;
21848;SDS011;11089;49.852;19.700;2022-08-19T14:24:05;11.63;;;7.30;;
21848;SDS011;11089;49.852;19.700;2022-08-19T14:31:41;9.35;;;7.20;;
21848;SDS011;11089;49.852;19.700;2022-08-19T14:34:44;11.75;;;7.55;;
21848;SDS011;11089;49.852;19.700;2022-08-19T14:37:45;13.27;;;7.78;;
21848;SDS011;11089;49.852;19.700;2022-08-19T14:40:46;11.27;;;8.30;;
21848;SDS011;11089;49.852;19.700;2022-08-19T14:44:09;11.68;;;7.97;;
21848;SDS011;11089;49.852;19.700;2022-08-19T14:51:38;9.68;;;8.00;;
21848;SDS011;11089;49.852;19.700;2022-08-19T14:59:03;9.00;;;7.90;;
21848;SDS011;11089;49.852;19.700;2022-08-19T15:02:19;14.07;;;8.23;;
21848;SDS011;11089;49.852;19.700;2022-08-19T15:05:41;12.18;;;8.00;;
21848;SDS011;11089;49.852;19.700;2022-08-19T15:08:45;9.90;;;8.10;;
21848;SDS011;11089;49.852;19.700;2022-08-19T15:11:46;8.52;;;7.53;;
21848;SDS011;11089;49.852;19.700;2022-08-19T15:14:49;11.57;;;8.30;;
21848;SDS011;11089;49.852;19.700;2022-08-19T15:17:51;10.63;;;7.85;;
21848;SDS011;11089;49.852;19.700;2022-08-19T15:20:56;10.55;;;7.60;;
21848;SDS011;11089;49.852;19.700;2022-08-19T15:24:20;11.95;;;8.43;;
21848;SDS011;11089;49.852;19.700;2022-08-19T15:27:22;10.02;;;8.20;;
21848;SDS011;11089;49.852;19.700;2022-08-19T15:30:25;10.35;;;8.10;;
21848;SDS011;11089;49.852;19.700;2022-08-19T15:33:32;9.27;;;8.02;;
21848;SDS011;11089;49.852;19.700;2022-08-19T15:36:42;10.88;;;9.00;;
21848;SDS011;11089;49.852;19.700;2022-08-19T15:39:44;15.32;;;8.68;;
21848;SDS011;11089;49.852;19.700;2022-08-19T15:42:46;9.82;;;8.50;;
21848;SDS011;11089;49.852;19.700;2022-08-19T15:45:49;28.63;;;14.05;;
21848;SDS011;11089;49.852;19.700;2022-08-19T15:48:50;14.98;;;9.77;;
21848;SDS011;11089;49.852;19.700;2022-08-19T15:51:53;9.32;;;8.38;;
21848;SDS011;11089;49.852;19.700;2022-08-19T15:54:56;10.88;;;8.43;;
21848;SDS011;11089;49.852;19.700;2022-08-19T15:58:18;12.85;;;8.50;;
21848;SDS011;11089;49.852;19.700;2022-08-19T16:02:02;11.25;;;8.70;;
21848;SDS011;11089;49.852;19.700;2022-08-19T16:05:21;12.93;;;8.75;;
21848;SDS011;11089;49.852;19.700;2022-08-19T16:08:40;13.07;;;8.77;;
21848;SDS011;11089;49.852;19.700;2022-08-19T16:11:41;13.68;;;8.88;;
21848;SDS011;11089;49.852;19.700;2022-08-19T16:14:45;14.85;;;8.80;;
21848;SDS011;11089;49.852;19.700;2022-08-19T16:17:58;11.18;;;8.63;;
21848;SDS011;11089;49.852;19.700;2022-08-19T16:21:06;16.95;;;8.95;;
21848;SDS011;11089;49.852;19.700;2022-08-19T16:24:07;12.43;;;8.60;;
21848;SDS011;11089;49.852;19.700;2022-08-19T16:27:11;12.85;;;8.23;;
21848;SDS011;11089;49.852;19.700;2022-08-19T16:30:12;14.02;;;8.05;;
21848;SDS011;11089;49.852;19.700;2022-08-19T16:33:13;13.43;;;8.45;;
21848;SDS011;11089;49.852;19.700;2022-08-19T16:36:14;12.73;;;9.13;;
21848;SDS011;11089;49.852;19.700;2022-08-19T16:39:16;12.80;;;9.38;;
21848;SDS011;11089;49.852;19.700;2022-08-19T16:42:17;11.60;;;8.93;;
21848;SDS011;11089;49.852;19.700;2022-08-19T16:45:19;12.55;;;8.20;;
21848;SDS011;11089;49.852;19.700;2022-08-19T16:48:21;11.10;;;9.50;;
21848;SDS011;11089;49.852;19.700;2022-08-19T16:51:25;12.02;;;9.10;;
21848;SDS011;11089;49.852;19.700;2022-08-19T16:54:26;13.07;;;8.98;;
21848;SDS011;11089;49.852;19.700;2022-08-19T16:57:27;12.20;;;8.82;;
21848;SDS011;11089;49.852;19.700;2022-08-19T17:00:28;16.38;;;9.13;;
21848;SDS011;11089;49.852;19.700;2022-08-19T17:03:31;9.48;;;8.00;;
21848;SDS011;11089;49.852;19.700;2022-08-19T17:06:33;15.40;;;9.02;;
21848;SDS011;11089;49.852;19.700;2022-08-19T17:09:36;10.73;;;8.38;;
21848;SDS011;11089;49.852;19.700;2022-08-19T17:12:37;13.07;;;10.80;;
21848;SDS011;11089;49.852;19.700;2022-08-19T17:15:37;14.65;;;10.95;;
21848;SDS011;11089;49.852;19.700;2022-08-19T17:18:38;12.60;;;9.75;;
21848;SDS011;11089;49.852;19.700;2022-08-19T17:21:39;13.00;;;9.98;;
21848;SDS011;11089;49.852;19.700;2022-08-19T17:24:41;12.48;;;9.00;;
21848;SDS011;11089;49.852;19.700;2022-08-19T17:27:42;15.80;;;8.82;;
21848;SDS011;11089;49.852;19.700;2022-08-19T17:30:43;11.10;;;8.90;;
21848;SDS011;11089;49.852;19.700;2022-08-19T17:33:44;11.23;;;8.60;;
21848;SDS011;11089;49.852;19.700;2022-08-19T17:36:45;12.38;;;9.07;;
21848;SDS011;11089;49.852;19.700;2022-08-19T17:39:46;13.63;;;9.63;;
21848;SDS011;11089;49.852;19.700;2022-08-19T17:42:47;13.10;;;8.90;;
21848;SDS011;11089;49.852;19.700;2022-08-19T17:45:49;15.60;;;9.13;;
21848;SDS011;11089;49.852;19.700;2022-08-19T17:48:51;12.75;;;8.85;;
21848;SDS011;11089;49.852;19.700;2022-08-19T17:51:53;14.82;;;9.40;;
21848;SDS011;11089;49.852;19.700;2022-08-19T17:54:54;12.73;;;9.38;;
21848;SDS011;11089;49.852;19.700;2022-08-19T18:01:57;11.88;;;8.40;;
21848;SDS011;11089;49.852;19.700;2022-08-19T18:05:07;14.75;;;9.85;;
21848;SDS011;11089;49.852;19.700;2022-08-19T18:08:37;14.32;;;9.93;;
21848;SDS011;11089;49.852;19.700;2022-08-19T18:11:48;12.65;;;9.38;;
21848;SDS011;11089;49.852;19.700;2022-08-19T18:14:49;16.02;;;10.18;;
21848;SDS011;11089;49.852;19.700;2022-08-19T18:17:50;12.45;;;9.48;;
21848;SDS011;11089;49.852;19.700;2022-08-19T18:20:52;15.40;;;9.65;;
21848;SDS011;11089;49.852;19.700;2022-08-19T18:23:53;12.60;;;9.90;;
21848;SDS011;11089;49.852;19.700;2022-08-19T18:26:54;25.95;;;13.00;;
21848;SDS011;11089;49.852;19.700;2022-08-19T18:29:55;22.73;;;11.88;;
21848;SDS011;11089;49.852;19.700;2022-08-19T18:32:58;19.58;;;11.07;;
21848;SDS011;11089;49.852;19.700;2022-08-19T18:36:00;16.42;;;9.85;;
21848;SDS011;11089;49.852;19.700;2022-08-19T18:39:01;20.45;;;9.60;;
21848;SDS011;11089;49.852;19.700;2022-08-19T18:42:17;13.85;;;8.80;;
21848;SDS011;11089;49.852;19.700;2022-08-19T18:45:32;15.27;;;8.27;;
21848;SDS011;11089;49.852;19.700;2022-08-19T18:48:46;15.77;;;8.93;;
21848;SDS011;11089;49.852;19.700;2022-08-19T18:52:11;16.80;;;8.02;;
21848;SDS011;11089;49.852;19.700;2022-08-19T18:55:27;13.93;;;7.85;;